Lanoraie, Canada
Current Conditions -  °F | °C
As of 3:00 PM on Thursday 29 Jan 2015 (Local Time) from CYHU Reporting Station
Overcast Overcast  
Wind Chill:   Ceiling: 12000
Heat Index: 19°   Visibility: 9mi
Dew Point:   Wind: 9mph
Humidity: 58%   Direction: 40°NE
Pressure: 30.01"   Gusts: NA
Location:  45.97°N, 73.22°W
Report Text: CYHU 292000Z AUTO 04008KT 9SM OVC120 M07/M14 A3001 RMK SLP165
Loading
Personal Weather Stations






























Interactive Weather Map New forecast layout! Learn more

10-Day Weather Forecast

Advertisements
Track Severe Weather on mobile